Terminal Aerodrome Forecast
Issued by NWS

Home | Current Version | Previous Version | Text Only | Print | Product List | Glossary On
Versions: 1 2 3 4 5 6 7 8 9 10 11 12 13 14 15 16 17 18
000
FTUS42 KMLB 250700 AAA
TAFLEE
TAF AMD
KLEE 250710Z 2507/2606 VRB03KT P6SM FEW250
      TEMPO 2510/2513 1SM BR SCT005
     FM251400 25007KT P6SM FEW035=

USA.gov is the U.S. government's official web portal to all federal, state and local government web resources and services.